HSG005 FSIA-FIMP
Flight info
| Callsign | HSG005 |
|---|---|
| Flight time | N/A |
| Altitude | 33000 |
| Route | NESID1B NESID T129 RERUS UM313 ALRAN UT400 DUNRI DUNRI1E |
| Aircraft | B739/M-SDE2E3FGHIRWXY/LB1 |
Departure
| Time | 2026-04-25 01:46 |
|---|---|
| Airport | Seychelles International Airport (FSIA) |
Arrival
| Time | N/A |
|---|---|
| Airport | Sir Seewoosagur Ramgoolam International Airport (FIMP) |
| Time | Latitude | Longitude | Altitude | Speed | Heading |
|---|---|---|---|---|---|
| 2026-04-25 01:33 | -4.66782 | 55.51223 | 23 ft | 0 kts | 124° |
| 2026-04-25 01:45 | -4.66785 | 55.51228 | 24 ft | 8 kts | 124° |
| 2026-04-25 01:45 | -4.67004 | 55.51548 | 21 ft | 102 kts | 125° |
| 2026-04-25 01:45 | -4.67564 | 55.52357 | 28 ft | 177 kts | 124° |
| 2026-04-25 01:46 | -4.68314 | 55.53479 | 628 ft | 200 kts | 125° |
| 2026-04-25 01:46 | -4.69144 | 55.54622 | 1722 ft | 200 kts | 137° |
| 2026-04-25 01:46 | -4.70455 | 55.55283 | 2197 ft | 227 kts | 172° |
| 2026-04-25 01:46 | -4.72052 | 55.55412 | 2821 ft | 235 kts | 176° |
| 2026-04-25 01:47 | -4.73698 | 55.55542 | 3466 ft | 240 kts | 175° |
| 2026-04-25 01:47 | -4.75427 | 55.55712 | 3881 ft | 260 kts | 174° |
| 2026-04-25 01:47 | -4.77260 | 55.55928 | 4612 ft | 269 kts | 174° |
| 2026-04-25 01:47 | -4.79121 | 55.56176 | 5503 ft | 272 kts | 173° |
| 2026-04-25 01:48 | -4.81011 | 55.56450 | 6327 ft | 277 kts | 172° |
| 2026-04-25 01:48 | -4.82929 | 55.56743 | 7126 ft | 281 kts | 172° |
| 2026-04-25 01:48 | -4.84877 | 55.57053 | 7915 ft | 286 kts | 171° |
| 2026-04-25 01:48 | -4.86850 | 55.57374 | 8712 ft | 290 kts | 171° |
| 2026-04-25 01:49 | -4.88859 | 55.57706 | 9499 ft | 295 kts | 171° |
| 2026-04-25 01:49 | -4.90900 | 55.58047 | 10233 ft | 300 kts | 171° |
| 2026-04-25 01:49 | -4.93026 | 55.58405 | 10520 ft | 323 kts | 171° |
| 2026-04-25 01:49 | -4.95322 | 55.58792 | 10696 ft | 346 kts | 171° |
| 2026-04-25 01:50 | -4.97758 | 55.59204 | 10963 ft | 362 kts | 170° |
| 2026-04-25 01:50 | -5.00270 | 55.59629 | 11510 ft | 368 kts | 170° |
| 2026-04-25 01:50 | -5.02802 | 55.60059 | 12187 ft | 370 kts | 170° |
| 2026-04-25 01:50 | -5.05354 | 55.60492 | 12844 ft | 373 kts | 170° |
| 2026-04-25 01:51 | -5.07926 | 55.60928 | 13482 ft | 376 kts | 170° |
| 2026-04-25 01:51 | -5.10519 | 55.61368 | 14029 ft | 380 kts | 170° |
| 2026-04-25 01:51 | -5.13135 | 55.61812 | 14564 ft | 383 kts | 170° |
| 2026-04-25 01:51 | -5.15779 | 55.62260 | 15097 ft | 387 kts | 170° |
| 2026-04-25 01:52 | -5.18433 | 55.62725 | 15755 ft | 384 kts | 169° |
| 2026-04-25 01:52 | -5.21016 | 55.63207 | 16786 ft | 372 kts | 169° |
| 2026-04-25 01:52 | -5.23524 | 55.63687 | 17865 ft | 360 kts | 168° |
| 2026-04-25 01:52 | -5.25953 | 55.64153 | 18775 ft | 352 kts | 168° |
| 2026-04-25 01:53 | -5.28350 | 55.64614 | 19490 ft | 351 kts | 168° |
| 2026-04-25 01:53 | -5.30765 | 55.65077 | 20066 ft | 356 kts | 168° |
| 2026-04-25 01:53 | -5.33216 | 55.65545 | 20604 ft | 360 kts | 169° |
| 2026-04-25 01:53 | -5.35693 | 55.66017 | 21175 ft | 364 kts | 169° |
| 2026-04-25 01:54 | -5.38194 | 55.66493 | 21750 ft | 368 kts | 169° |
| 2026-04-25 01:54 | -5.40718 | 55.66973 | 22323 ft | 371 kts | 169° |
| 2026-04-25 01:54 | -5.43269 | 55.67458 | 22877 ft | 375 kts | 169° |
| 2026-04-25 01:54 | -5.45848 | 55.67947 | 23363 ft | 380 kts | 169° |
| 2026-04-25 01:55 | -5.48458 | 55.68443 | 23842 ft | 383 kts | 169° |
| 2026-04-25 01:55 | -5.51082 | 55.68941 | 24340 ft | 385 kts | 169° |
| 2026-04-25 01:55 | -5.52864 | 55.69279 | 24653 ft | 387 kts | 169° |
| 2026-04-25 01:55 | -5.55523 | 55.69784 | 25089 ft | 391 kts | 169° |
| 2026-04-25 01:56 | -5.58205 | 55.70293 | 25568 ft | 394 kts | 169° |
| 2026-04-25 01:56 | -5.60907 | 55.70806 | 26054 ft | 396 kts | 169° |
| 2026-04-25 01:56 | -5.63621 | 55.71322 | 26534 ft | 399 kts | 169° |
| 2026-04-25 01:56 | -5.66359 | 55.71842 | 27000 ft | 402 kts | 170° |
| 2026-04-25 01:57 | -5.71899 | 55.72894 | 27875 ft | 409 kts | 170° |
| 2026-04-25 01:57 | -5.74702 | 55.73426 | 28315 ft | 412 kts | 170° |
| 2026-04-25 01:57 | -5.77532 | 55.73964 | 28770 ft | 415 kts | 170° |
| 2026-04-25 01:58 | -5.80379 | 55.74505 | 29209 ft | 418 kts | 170° |
| 2026-04-25 01:58 | -5.83247 | 55.75050 | 29635 ft | 421 kts | 170° |
| 2026-04-25 01:58 | -5.86137 | 55.75599 | 30029 ft | 425 kts | 171° |
| 2026-04-25 01:58 | -5.89054 | 55.76154 | 30401 ft | 427 kts | 170° |
| 2026-04-25 01:59 | -5.91983 | 55.76711 | 30798 ft | 429 kts | 170° |
| 2026-04-25 01:59 | -5.94928 | 55.77271 | 31168 ft | 432 kts | 170° |
| 2026-04-25 01:59 | -5.97885 | 55.77833 | 31531 ft | 434 kts | 170° |
| 2026-04-25 01:59 | -6.00859 | 55.78399 | 31904 ft | 436 kts | 170° |
| 2026-04-25 02:00 | -6.03848 | 55.78967 | 32266 ft | 438 kts | 170° |
| 2026-04-25 02:00 | -6.06853 | 55.79539 | 32615 ft | 441 kts | 170° |
| 2026-04-25 02:00 | -6.09873 | 55.80114 | 32850 ft | 444 kts | 170° |
| 2026-04-25 02:01 | -6.16041 | 55.81287 | 32846 ft | 457 kts | 170° |